createdAt,value
2023-04-15T00:01:51.876Z,4.00
2023-04-15T00:04:18.507Z,4.00
2023-04-15T00:06:52.944Z,3.90
2023-04-15T00:09:20.288Z,4.20
2023-04-15T00:11:47.158Z,4.40
2023-04-15T00:14:13.838Z,4.00
2023-04-15T00:16:40.334Z,3.90
2023-04-15T00:19:06.883Z,4.60
2023-04-15T00:21:33.440Z,4.70
2023-04-15T00:23:59.938Z,4.60
2023-04-15T00:26:26.408Z,4.70
2023-04-15T00:28:52.868Z,4.00
2023-04-15T00:31:19.396Z,4.80
2023-04-15T00:33:45.942Z,4.70
2023-04-15T00:36:12.465Z,4.30
2023-04-15T00:38:38.963Z,4.60
2023-04-15T00:41:05.459Z,4.60
2023-04-15T00:43:31.970Z,4.70
2023-04-15T00:45:59.502Z,4.70
2023-04-15T00:48:26.689Z,4.10
2023-04-15T00:50:53.148Z,4.60
2023-04-15T00:53:19.632Z,4.20
2023-04-15T00:55:46.083Z,4.80
2023-04-15T00:58:12.632Z,4.40
2023-04-15T01:00:39.115Z,4.60
2023-04-15T01:03:05.800Z,4.90
2023-04-15T01:05:33.179Z,4.50
2023-04-15T01:07:59.867Z,4.40
2023-04-15T01:10:26.382Z,4.60
2023-04-15T01:12:52.885Z,4.70
2023-04-15T01:15:20.380Z,5.30
2023-04-15T01:17:47.080Z,4.80
2023-04-15T01:20:13.648Z,5.00
2023-04-15T01:22:40.818Z,5.00
2023-04-15T01:25:11.652Z,4.80
2023-04-15T01:27:40.244Z,5.00
2023-04-15T01:30:08.173Z,5.30
2023-04-15T01:32:34.796Z,5.00
2023-04-15T01:35:01.326Z,4.40
2023-04-15T01:37:27.876Z,4.40
2023-04-15T01:39:54.358Z,5.20
2023-04-15T01:42:21.846Z,4.80
2023-04-15T01:44:48.321Z,5.00
2023-04-15T01:47:14.764Z,5.20
2023-04-15T01:49:41.260Z,4.90
2023-04-15T01:52:07.718Z,4.50
2023-04-15T01:54:34.229Z,4.70
2023-04-15T01:57:00.726Z,4.50
2023-04-15T01:59:27.205Z,4.60
2023-04-15T02:01:53.732Z,4.40
2023-04-15T02:04:20.214Z,3.80
2023-04-15T02:06:46.665Z,4.80
2023-04-15T02:09:13.150Z,4.40
2023-04-15T02:11:39.638Z,4.20
2023-04-15T02:14:06.082Z,4.50
2023-04-15T02:16:33.312Z,4.00
2023-04-15T02:19:00.654Z,4.00
2023-04-15T02:21:27.602Z,4.40
2023-04-15T02:23:54.250Z,4.30
2023-04-15T02:26:20.794Z,4.40
2023-04-15T02:28:47.405Z,3.80
2023-04-15T02:31:13.901Z,3.90
2023-04-15T02:33:40.434Z,3.60
2023-04-15T02:36:07.103Z,3.80
2023-04-15T02:38:33.720Z,3.70
2023-04-15T02:41:00.216Z,3.80
2023-04-15T02:43:26.718Z,3.40
2023-04-15T02:45:53.152Z,3.60
2023-04-15T02:48:19.721Z,3.80
2023-04-15T02:50:47.050Z,3.80
2023-04-15T02:53:13.847Z,3.80
2023-04-15T02:55:40.598Z,3.80
2023-04-15T02:58:07.143Z,4.30
2023-04-15T03:00:33.751Z,3.90
2023-04-15T03:03:05.407Z,3.90
2023-04-15T03:05:32.234Z,3.80
2023-04-15T03:07:58.712Z,4.00
2023-04-15T03:10:25.197Z,3.70
2023-04-15T03:12:51.693Z,3.70
2023-04-15T03:15:18.179Z,4.00
2023-04-15T03:17:44.674Z,4.20
2023-04-15T03:20:11.273Z,3.90
2023-04-15T03:22:37.815Z,3.80
2023-04-15T03:25:04.624Z,4.00
2023-04-15T03:27:31.086Z,4.00
2023-04-15T03:29:57.556Z,3.90
2023-04-15T03:32:24.454Z,4.60
2023-04-15T03:34:50.967Z,4.90
2023-04-15T03:37:17.401Z,4.40
2023-04-15T03:39:43.846Z,4.70
2023-04-15T03:42:10.280Z,4.90
2023-04-15T03:44:36.786Z,4.30
2023-04-15T03:47:03.380Z,4.20
2023-04-15T03:49:29.898Z,4.50
2023-04-15T03:51:56.358Z,4.70
2023-04-15T03:54:22.908Z,4.70
2023-04-15T03:56:49.390Z,4.30
2023-04-15T03:59:15.875Z,4.10
2023-04-15T04:01:42.374Z,4.70
2023-04-15T04:04:08.993Z,4.50
2023-04-15T04:06:35.519Z,4.20
2023-04-15T04:09:02.186Z,4.20
2023-04-15T04:11:28.933Z,3.70
2023-04-15T04:13:55.405Z,4.10
2023-04-15T04:16:22.097Z,4.70
2023-04-15T04:18:48.662Z,5.00
2023-04-15T04:21:15.242Z,4.20
2023-04-15T04:23:41.746Z,4.20
2023-04-15T04:26:08.255Z,4.50
2023-04-15T04:28:34.750Z,4.30
2023-04-15T04:31:01.268Z,5.10
2023-04-15T04:33:27.783Z,5.00
2023-04-15T04:35:54.249Z,4.30
2023-04-15T04:38:20.675Z,4.80
2023-04-15T04:40:47.432Z,5.00
2023-04-15T04:43:13.944Z,4.50
2023-04-15T04:45:40.529Z,4.80
2023-04-15T04:48:07.177Z,4.30
2023-04-15T04:50:34.453Z,4.90
2023-04-15T04:53:01.454Z,4.80
2023-04-15T04:55:28.287Z,5.00
2023-04-15T04:57:54.848Z,4.60
2023-04-15T05:00:21.409Z,4.80
2023-04-15T05:02:48.211Z,4.60
2023-04-15T05:05:15.021Z,5.50
2023-04-15T05:07:41.638Z,4.20
2023-04-15T05:10:08.679Z,4.70
2023-04-15T05:12:36.001Z,4.40
2023-04-15T05:15:02.509Z,4.50
2023-04-15T05:17:28.995Z,4.60
2023-04-15T05:19:55.517Z,4.90
2023-04-15T05:22:22.019Z,5.20
2023-04-15T05:24:48.499Z,4.70
2023-04-15T05:27:14.958Z,4.90
2023-04-15T05:29:41.442Z,5.10
2023-04-15T05:32:08.062Z,4.80
2023-04-15T05:34:34.663Z,5.40
2023-04-15T05:37:01.206Z,4.90
2023-04-15T05:39:27.854Z,4.90
2023-04-15T05:41:54.416Z,5.10
2023-04-15T05:44:20.898Z,5.20
2023-04-15T05:46:47.366Z,4.90
2023-04-15T05:49:13.847Z,5.60
2023-04-15T05:51:40.298Z,5.40
2023-04-15T05:54:07.230Z,5.20
2023-04-15T05:56:33.766Z,5.00
2023-04-15T05:59:00.382Z,5.50
2023-04-15T06:01:27.552Z,5.00
2023-04-15T06:03:54.185Z,4.90
2023-04-15T06:06:20.741Z,5.40
2023-04-15T06:08:47.229Z,4.80
2023-04-15T06:11:13.795Z,5.20
2023-04-15T06:13:40.297Z,5.20
2023-04-15T06:16:07.142Z,5.20
2023-04-15T06:18:33.667Z,4.90
2023-04-15T06:21:00.227Z,4.70
2023-04-15T06:23:27.996Z,4.50
2023-04-15T06:25:54.591Z,4.60
2023-04-15T06:28:21.092Z,4.60
2023-04-15T06:30:47.646Z,3.90
2023-04-15T06:33:14.125Z,4.00
2023-04-15T06:35:40.606Z,4.10
2023-04-15T06:38:07.058Z,3.80
2023-04-15T06:40:33.718Z,4.00
2023-04-15T06:43:00.379Z,3.50
2023-04-15T06:45:26.859Z,3.80
2023-04-15T06:47:53.458Z,3.90
2023-04-15T06:50:19.979Z,4.40
2023-04-15T06:52:46.485Z,4.30
2023-04-15T06:55:12.956Z,3.90
2023-04-15T06:57:39.394Z,3.20
2023-04-15T07:00:06.541Z,3.10
2023-04-15T07:02:33.425Z,3.60
2023-04-15T07:05:00.041Z,3.10
2023-04-15T07:07:26.507Z,3.50
2023-04-15T07:09:52.959Z,3.50
2023-04-15T07:12:20.161Z,3.30
2023-04-15T07:14:46.689Z,3.20
2023-04-15T07:17:13.455Z,3.10
2023-04-15T07:19:39.966Z,2.70
2023-04-15T07:22:06.495Z,3.00
2023-04-15T07:24:33.203Z,3.20
2023-04-15T07:27:01.105Z,3.10
2023-04-15T07:29:28.064Z,3.60
2023-04-15T07:31:54.648Z,3.80
2023-04-15T07:34:21.183Z,3.00
2023-04-15T07:36:47.904Z,3.30
2023-04-15T07:39:14.393Z,3.50
2023-04-15T07:41:40.994Z,3.20
2023-04-15T07:44:07.523Z,3.30
2023-04-15T07:46:34.201Z,3.50
2023-04-15T07:49:01.096Z,3.20
2023-04-15T07:51:27.804Z,3.00
2023-04-15T07:53:54.262Z,4.80
2023-04-15T07:56:20.773Z,6.60
2023-04-15T07:58:47.256Z,2.80
2023-04-15T08:01:13.734Z,3.60
2023-04-15T08:03:40.429Z,2.90
2023-04-15T08:06:07.024Z,2.40
2023-04-15T08:08:33.554Z,4.20
2023-04-15T08:11:00.171Z,2.60
2023-04-15T08:13:26.719Z,2.20
2023-04-15T08:16:22.195Z,2.20
2023-04-15T08:18:50.007Z,2.30
2023-04-15T08:21:17.945Z,2.10
2023-04-15T08:23:45.180Z,2.40
2023-04-15T08:26:12.198Z,2.10
2023-04-15T08:28:40.552Z,2.40
2023-04-15T08:31:07.568Z,2.50
2023-04-15T08:33:34.067Z,2.00
2023-04-15T08:36:00.604Z,2.20
2023-04-15T08:38:27.234Z,2.00
2023-04-15T08:40:53.723Z,1.60
2023-04-15T08:43:23.508Z,1.60
2023-04-15T08:45:51.030Z,1.50
2023-04-15T08:48:18.039Z,1.60
2023-04-15T08:50:46.573Z,1.80
2023-04-15T08:53:13.623Z,1.90
2023-04-15T08:55:51.823Z,1.90
2023-04-15T08:58:19.401Z,2.10
2023-04-15T09:00:45.971Z,2.20
2023-04-15T09:03:12.697Z,1.60
2023-04-15T09:05:39.240Z,2.20
2023-04-15T09:08:05.829Z,1.90
2023-04-15T09:10:34.479Z,2.10
2023-04-15T09:13:01.787Z,1.90
2023-04-15T09:15:28.479Z,1.70
2023-04-15T09:17:55.485Z,1.50
2023-04-15T09:20:22.871Z,1.70
2023-04-15T09:22:50.251Z,1.70
2023-04-15T09:25:22.709Z,1.80
2023-04-15T09:27:53.205Z,1.50
2023-04-15T09:30:19.686Z,1.30
2023-04-15T09:32:57.812Z,1.60
2023-04-15T09:35:26.486Z,1.70
2023-04-15T09:37:54.700Z,1.70
2023-04-15T09:40:39.450Z,1.70
2023-04-15T09:43:07.697Z,1.90
2023-04-15T09:45:35.491Z,1.30
2023-04-15T09:48:34.472Z,1.50
2023-04-15T09:51:01.889Z,1.80
2023-04-15T09:53:29.823Z,1.40
2023-04-15T09:56:00.472Z,1.70
2023-04-15T09:58:28.904Z,1.60
2023-04-15T10:00:57.425Z,1.90
2023-04-15T10:03:31.899Z,1.90
2023-04-15T10:06:01.399Z,1.80
2023-04-15T10:08:30.274Z,1.30
2023-04-15T10:10:57.509Z,1.40
2023-04-15T10:13:25.967Z,1.80
2023-04-15T10:15:59.259Z,1.40
2023-04-15T10:18:28.285Z,1.70
2023-04-15T10:20:55.336Z,1.50
2023-04-15T10:23:23.316Z,2.10
2023-04-15T10:25:52.399Z,2.20
2023-04-15T10:28:20.510Z,2.50
2023-04-15T10:30:47.999Z,2.70
2023-04-15T10:33:15.410Z,2.60
2023-04-15T10:35:42.895Z,2.70
2023-04-15T10:38:45.405Z,2.90
2023-04-15T10:41:12.558Z,2.30
2023-04-15T10:43:39.195Z,1.80
2023-04-15T10:46:06.648Z,1.80
2023-04-15T10:48:33.336Z,1.70
2023-04-15T10:51:03.071Z,1.70
2023-04-15T10:53:29.972Z,1.30
2023-04-15T10:55:57.910Z,1.30
2023-04-15T10:58:25.588Z,1.10
2023-04-15T11:00:53.717Z,1.20
2023-04-15T11:03:40.709Z,1.40
2023-04-15T11:06:07.783Z,1.50
2023-04-15T11:08:56.142Z,1.40
2023-04-15T11:11:23.154Z,0.90
2023-04-15T11:13:52.531Z,1.40
2023-04-15T11:16:19.009Z,1.50
2023-04-15T11:18:55.482Z,1.30
2023-04-15T11:21:25.263Z,1.30
2023-04-15T11:23:51.857Z,1.40
2023-04-15T11:26:18.370Z,1.30
2023-04-15T11:28:46.173Z,1.20
2023-04-15T11:31:14.822Z,1.10
2023-04-15T11:33:58.852Z,1.00
2023-04-15T11:36:29.934Z,1.20
2023-04-15T11:38:58.674Z,0.90
2023-04-15T11:41:25.176Z,1.20
2023-04-15T11:43:52.761Z,1.20
2023-04-15T11:46:19.671Z,1.20
2023-04-15T11:48:47.462Z,1.20
2023-04-15T11:51:14.566Z,1.30
2023-04-15T11:53:47.902Z,1.40
2023-04-15T11:56:26.296Z,1.10
2023-04-15T11:58:55.456Z,1.30
2023-04-15T12:01:31.318Z,1.00
2023-04-15T12:03:57.876Z,1.30
2023-04-15T12:06:25.735Z,1.30
2023-04-15T12:08:55.267Z,1.20
2023-04-15T12:11:27.723Z,1.90
2023-04-15T12:13:57.184Z,2.00
2023-04-15T12:16:24.997Z,1.70
2023-04-15T12:18:55.949Z,1.80
2023-04-15T12:21:24.561Z,2.20
2023-04-15T12:23:52.975Z,2.20
2023-04-15T12:26:28.016Z,2.60
2023-04-15T12:29:05.041Z,2.90
2023-04-15T12:31:31.620Z,3.00
2023-04-15T12:33:59.078Z,3.20
2023-04-15T12:36:25.565Z,2.90
2023-04-15T12:38:52.023Z,3.50
2023-04-15T12:41:18.685Z,6.00
2023-04-15T12:43:45.446Z,5.00
2023-04-15T12:46:12.060Z,3.60
2023-04-15T12:48:38.646Z,2.70
2023-04-15T12:51:05.802Z,2.70
2023-04-15T12:53:32.450Z,2.10
2023-04-15T12:55:58.928Z,2.70
2023-04-15T12:58:25.432Z,2.70
2023-04-15T13:00:51.899Z,2.40
2023-04-15T13:03:18.491Z,2.70
2023-04-15T13:05:45.022Z,2.50
2023-04-15T13:08:11.495Z,2.50
2023-04-15T13:10:38.008Z,2.50
2023-04-15T13:13:05.797Z,2.90
2023-04-15T13:15:32.309Z,2.40
2023-04-15T13:17:58.838Z,3.20
2023-04-15T13:20:25.483Z,3.10
2023-04-15T13:22:52.963Z,3.10
2023-04-15T13:25:19.831Z,3.00
2023-04-15T13:27:46.359Z,3.30
2023-04-15T13:30:12.922Z,2.60
2023-04-15T13:32:39.432Z,3.50
2023-04-15T13:35:06.098Z,3.10
2023-04-15T13:37:32.612Z,2.50
2023-04-15T13:39:59.088Z,2.60
2023-04-15T13:42:25.656Z,2.30
2023-04-15T13:44:52.210Z,2.70
2023-04-15T13:47:21.945Z,2.80
2023-04-15T13:49:48.538Z,2.70
2023-04-15T13:52:15.015Z,2.90
2023-04-15T13:54:41.518Z,3.00
2023-04-15T13:57:08.234Z,3.30
2023-04-15T13:59:34.790Z,4.20
2023-04-15T14:02:02.063Z,4.30
2023-04-15T14:04:28.702Z,3.30
2023-04-15T14:06:56.292Z,4.90
2023-04-15T14:09:25.012Z,5.40
2023-04-15T14:11:53.065Z,4.00
2023-04-15T14:14:19.598Z,3.70
2023-04-15T14:16:46.150Z,3.40
2023-04-15T14:19:12.659Z,3.40
2023-04-15T14:21:39.136Z,3.80
2023-04-15T14:24:06.022Z,2.90
2023-04-15T14:26:32.641Z,4.90
2023-04-15T14:28:59.103Z,4.60
2023-04-15T14:31:25.627Z,3.30
2023-04-15T14:33:52.131Z,3.10
2023-04-15T14:36:18.709Z,2.70
2023-04-15T14:38:46.468Z,2.60
2023-04-15T14:41:14.108Z,2.50
2023-04-15T14:43:40.574Z,3.00
2023-04-15T14:46:07.720Z,2.30
2023-04-15T14:48:34.265Z,1.80
2023-04-15T14:51:00.860Z,1.90
2023-04-15T14:53:27.342Z,1.70
2023-04-15T14:55:53.833Z,1.30
2023-04-15T14:58:20.309Z,1.40
2023-04-15T15:00:47.035Z,2.20
2023-04-15T15:03:13.820Z,1.70
2023-04-15T15:05:41.975Z,2.10
2023-04-15T15:08:09.495Z,1.60
2023-04-15T15:10:47.985Z,1.20
2023-04-15T15:13:17.471Z,1.50
2023-04-15T15:15:44.084Z,1.20
2023-04-15T15:18:11.195Z,1.30
2023-04-15T15:20:37.777Z,1.30
2023-04-15T15:23:04.290Z,1.60
2023-04-15T15:25:30.780Z,1.10
2023-04-15T15:27:57.611Z,1.30
2023-04-15T15:30:24.237Z,1.60
2023-04-15T15:32:51.365Z,1.20
2023-04-15T15:35:18.021Z,1.20
2023-04-15T15:37:45.708Z,1.20
2023-04-15T15:40:12.613Z,1.30
2023-04-15T15:42:39.119Z,1.20
2023-04-15T15:45:06.088Z,1.90
2023-04-15T15:47:32.793Z,1.70
2023-04-15T15:50:01.026Z,1.50
2023-04-15T15:52:27.810Z,1.30
2023-04-15T15:54:54.300Z,1.60
2023-04-15T15:57:20.763Z,1.60
2023-04-15T15:59:47.292Z,1.50
2023-04-15T16:02:13.995Z,1.60
2023-04-15T16:04:40.865Z,1.60
2023-04-15T16:07:07.452Z,2.10
2023-04-15T16:09:33.964Z,1.90
2023-04-15T16:12:00.567Z,2.30
2023-04-15T16:14:27.085Z,2.60
2023-04-15T16:16:53.630Z,2.80
2023-04-15T16:19:21.135Z,4.00
2023-04-15T16:21:48.252Z,3.00
2023-04-15T16:24:14.848Z,2.60
2023-04-15T16:26:41.787Z,6.80
2023-04-15T16:29:08.516Z,3.80
2023-04-15T16:31:35.307Z,3.10
2023-04-15T16:34:02.708Z,2.80
2023-04-15T16:36:29.183Z,3.40
2023-04-15T16:38:55.661Z,2.70
2023-04-15T16:41:22.174Z,2.20
2023-04-15T16:43:48.714Z,4.70
2023-04-15T16:46:15.210Z,4.20
2023-04-15T16:48:41.754Z,3.70
2023-04-15T16:51:08.296Z,3.20
2023-04-15T16:53:34.754Z,2.30
2023-04-15T16:56:01.244Z,3.40
2023-04-15T16:58:27.815Z,3.30
2023-04-15T17:00:54.321Z,4.20
2023-04-15T17:03:20.947Z,4.00
2023-04-15T17:05:47.561Z,2.80
2023-04-15T17:08:14.031Z,2.60
2023-04-15T17:10:40.550Z,3.50
2023-04-15T17:13:07.372Z,2.60
2023-04-15T17:15:33.896Z,2.50
2023-04-15T17:18:00.514Z,2.30
2023-04-15T17:20:27.014Z,2.20
2023-04-15T17:22:53.514Z,3.00
2023-04-15T17:25:19.990Z,3.30
2023-04-15T17:27:46.459Z,3.10
2023-04-15T17:30:12.963Z,2.90
2023-04-15T17:32:39.827Z,3.00
2023-04-15T17:35:07.169Z,3.50
2023-04-15T17:37:34.513Z,8.50
2023-04-15T17:40:01.040Z,6.00
2023-04-15T17:42:27.515Z,5.00
2023-04-15T17:44:54.016Z,5.20
2023-04-15T17:47:20.653Z,5.00
2023-04-15T17:49:47.215Z,4.70
2023-04-15T17:52:14.508Z,4.70
2023-04-15T17:54:40.985Z,6.10
2023-04-15T17:57:07.496Z,5.60
2023-04-15T17:59:33.996Z,5.30
2023-04-15T18:02:00.577Z,4.60
2023-04-15T18:04:27.380Z,5.10
2023-04-15T18:06:54.029Z,6.20
2023-04-15T18:09:20.603Z,10.10
2023-04-15T18:11:47.159Z,7.80
2023-04-15T18:14:20.182Z,9.80
2023-04-15T18:16:53.414Z,9.90
2023-04-15T18:19:19.862Z,10.30
2023-04-15T18:21:46.305Z,9.40
2023-04-15T18:24:12.814Z,9.70
2023-04-15T18:26:39.304Z,6.40
2023-04-15T18:29:05.776Z,5.70
2023-04-15T18:31:32.505Z,6.30
2023-04-15T18:33:59.151Z,5.80
2023-04-15T18:36:25.725Z,4.80
2023-04-15T18:38:52.220Z,4.40
2023-04-15T18:41:18.696Z,3.90
2023-04-15T18:43:45.198Z,4.10
2023-04-15T18:46:11.838Z,6.60
2023-04-15T18:48:38.393Z,6.10
2023-04-15T18:51:04.899Z,5.20
2023-04-15T18:53:31.421Z,5.90
2023-04-15T18:55:57.939Z,5.40
2023-04-15T18:58:24.410Z,5.70
2023-04-15T19:00:51.014Z,6.20
2023-04-15T19:03:17.601Z,6.30
2023-04-15T19:05:44.206Z,6.40
2023-04-15T19:08:11.009Z,6.50
2023-04-15T19:10:38.425Z,6.60
2023-04-15T19:13:04.910Z,6.70
2023-04-15T19:15:31.499Z,6.70
2023-04-15T19:17:58.025Z,6.80
2023-04-15T19:20:24.569Z,6.50
2023-04-15T19:22:51.140Z,6.00
2023-04-15T19:25:17.680Z,6.70
2023-04-15T19:27:44.152Z,6.70
2023-04-15T19:30:10.731Z,6.50
2023-04-15T19:32:37.355Z,6.80
2023-04-15T19:35:04.073Z,7.10
2023-04-15T19:37:30.815Z,7.20
2023-04-15T19:39:57.384Z,8.80
2023-04-15T19:42:23.929Z,7.90
2023-04-15T19:44:50.400Z,8.00
2023-04-15T19:47:17.039Z,7.50
2023-04-15T19:49:43.616Z,8.20
2023-04-15T19:52:10.084Z,8.30
2023-04-15T19:54:36.602Z,8.40
2023-04-15T19:57:03.602Z,8.50
2023-04-15T19:59:30.179Z,8.10
2023-04-15T20:01:56.989Z,8.20
2023-04-15T20:04:23.611Z,8.20
2023-04-15T20:06:50.196Z,8.90
2023-04-15T20:09:16.830Z,8.80
2023-04-15T20:12:48.080Z,12.00
2023-04-15T20:14:29.763Z,10.00
2023-04-15T20:16:56.298Z,9.50
2023-04-15T20:19:22.794Z,9.20
2023-04-15T20:21:51.960Z,10.10
2023-04-15T20:24:19.097Z,9.80
2023-04-15T20:26:45.568Z,11.90
2023-04-15T20:29:12.072Z,9.90
2023-04-15T20:31:38.592Z,8.60
2023-04-15T20:34:05.158Z,9.40
2023-04-15T20:36:31.718Z,9.00
2023-04-15T20:38:58.171Z,8.50
2023-04-15T20:41:24.645Z,9.30
2023-04-15T20:43:51.143Z,8.90
2023-04-15T20:46:21.478Z,8.90
2023-04-15T20:48:48.591Z,9.40
2023-04-15T20:51:15.116Z,10.10
2023-04-15T20:53:41.632Z,10.30
2023-04-15T20:56:08.213Z,10.60
2023-04-15T20:58:34.678Z,10.50
2023-04-15T21:01:01.206Z,10.60
2023-04-15T21:03:27.988Z,9.50
2023-04-15T21:05:54.524Z,9.90
2023-04-15T21:08:21.068Z,10.10
2023-04-15T21:10:47.546Z,9.90
2023-04-15T21:13:14.076Z,9.60
2023-04-15T21:15:40.588Z,8.50
2023-04-15T21:18:07.089Z,8.70
2023-04-15T21:20:33.559Z,8.70
2023-04-15T21:23:00.023Z,7.50
2023-04-15T21:25:26.474Z,8.10
2023-04-15T21:27:52.960Z,7.40
2023-04-15T21:30:19.482Z,7.80
2023-04-15T21:32:45.938Z,7.70
2023-04-15T21:35:12.532Z,8.30
2023-04-15T21:37:39.010Z,8.20
2023-04-15T21:40:06.150Z,8.80
2023-04-15T21:42:32.609Z,9.10
2023-04-15T21:44:59.121Z,8.40
2023-04-15T21:47:25.706Z,9.20
2023-04-15T21:49:52.255Z,9.10
2023-04-15T21:52:18.809Z,8.60
2023-04-15T21:54:45.277Z,8.90
2023-04-15T21:57:11.782Z,8.60
2023-04-15T21:59:38.232Z,9.00
2023-04-15T22:02:04.843Z,8.70
2023-04-15T22:04:31.468Z,9.50
2023-04-15T22:06:57.942Z,7.70
2023-04-15T22:09:24.438Z,8.20
2023-04-15T22:11:50.869Z,9.40
2023-04-15T22:14:17.313Z,8.80
2023-04-15T22:16:43.836Z,9.20
2023-04-15T22:19:10.397Z,9.00
2023-04-15T22:21:36.856Z,8.80
2023-04-15T22:24:38.309Z,9.30
2023-04-15T22:26:50.060Z,9.10
2023-04-15T22:29:16.509Z,9.40
2023-04-15T22:31:43.007Z,9.80
2023-04-15T22:34:09.466Z,10.20
2023-04-15T22:36:35.914Z,10.10
2023-04-15T22:39:02.396Z,11.00
2023-04-15T22:41:28.930Z,10.20
2023-04-15T22:43:55.414Z,10.00
2023-04-15T22:46:21.968Z,10.50
2023-04-15T22:48:48.494Z,10.90
2023-04-15T22:51:21.140Z,9.90
2023-04-15T22:53:47.646Z,9.70
2023-04-15T22:56:14.111Z,10.10
2023-04-15T22:58:40.685Z,9.30
2023-04-15T23:01:08.025Z,10.10
2023-04-15T23:03:40.192Z,9.50
2023-04-15T23:06:20.960Z,9.70
2023-04-15T23:08:47.441Z,9.90
2023-04-15T23:11:13.955Z,9.50
2023-04-15T23:13:40.434Z,10.30
2023-04-15T23:16:07.490Z,10.00
2023-04-15T23:18:34.230Z,9.80
2023-04-15T23:21:00.741Z,9.50
2023-04-15T23:23:27.236Z,8.50
2023-04-15T23:25:53.692Z,9.50
2023-04-15T23:28:20.163Z,9.20
2023-04-15T23:30:46.630Z,9.20
2023-04-15T23:33:13.167Z,10.00
2023-04-15T23:35:39.651Z,11.10
2023-04-15T23:38:06.113Z,11.20
2023-04-15T23:40:32.615Z,11.20
2023-04-15T23:42:59.089Z,11.10
2023-04-15T23:45:25.623Z,11.40
2023-04-15T23:47:52.184Z,11.20
2023-04-15T23:50:18.810Z,9.90
2023-04-15T23:52:45.266Z,10.90
2023-04-15T23:55:11.797Z,10.30
2023-04-15T23:57:38.332Z,11.00
